This is the latest recevied weather packets stored in our database for station/object YM2KV-13. If no packets are shown the sender has not sent any weather packets the latest 10 day(s).
| Time | Temp. | Humidity | Pressure | Rain* | Wind** | Luminosity | Snow |
|---|---|---|---|---|---|---|---|
| 1777990788 | 13.33° C | 76% | 1026.3 hPa | - | - | - | - |
| 1777989587 | 13.33° C | 75% | 1026.2 hPa | - | - | - | - |
| 1777988987 | 13.89° C | 72% | 1026.2 hPa | - | - | - | - |
| 1777988387 | 13.89° C | 75% | 1026.3 hPa | - | - | - | - |
| 1777987787 | 14.44° C | 72% | 1026.3 hPa | - | - | - | - |
| 1777987187 | 15° C | 72% | 1026.2 hPa | - | - | - | - |
| 1777986587 | 15° C | 71% | 1026.2 hPa | - | - | - | - |
| 1777985987 | 14.44° C | 74% | 1026.3 hPa | - | - | - | - |
| 1777985387 | 14.44° C | 72% | 1026.3 hPa | - | - | - | - |
| 1777984787 | 14.44° C | 72% | 1026.3 hPa | - | - | - | - |
| 1777984187 | 14.44° C | 74% | 1026.3 hPa | - | - | - | - |
| 1777983587 | 14.44° C | 73% | 1026.3 hPa | - | - | - | - |
| 1777982987 | 14.44° C | 74% | 1026.3 hPa | - | - | - | - |
| 1777982387 | 14.44° C | 73% | 1026.3 hPa | - | - | - | - |
| 1777981787 | 14.44° C | 74% | 1026.3 hPa | - | - | - | - |
| 1777981187 | 15° C | 74% | 1026.3 hPa | - | - | - | - |
| 1777980587 | 14.44° C | 74% | 1026.3 hPa | - | - | - | - |
| 1777979987 | 13.33° C | 78% | 1026.2 hPa | - | - | - | - |
| 1777979387 | 13.89° C | 74% | 1026.3 hPa | - | - | - | - |
| 1777978787 | 12.78° C | 79% | 1026.2 hPa | - | - | - | - |
| 1777978187 | 12.78° C | 78% | 1026.1 hPa | - | - | - | - |
| 1777977587 | 13.33° C | 78% | 1026.2 hPa | - | - | - | - |
| 1777976987 | 13.89° C | 76% | 1026 hPa | - | - | - | - |
| 1777976387 | 13.89° C | 78% | 1026.1 hPa | - | - | - | - |
| 1777975787 | 13.33° C | 81% | 1026 hPa | - | - | - | - |
* Rain since midnight (hover to see other rain measurements)
** Current wind speed in m/s (hover to see current wind gust speed)